createdAt,value
2017-12-21T00:00:17.409Z,3.1
2017-12-21T00:02:17.222Z,3.4
2017-12-21T00:04:17.967Z,3.4
2017-12-21T00:06:17.738Z,3.2
2017-12-21T00:08:20.524Z,2.9
2017-12-21T00:10:17.287Z,3.3
2017-12-21T00:12:17.069Z,2.8
2017-12-21T00:14:20.847Z,3
2017-12-21T00:16:16.618Z,2.6
2017-12-21T00:18:18.417Z,3.3
2017-12-21T00:20:21.140Z,3.3
2017-12-21T00:22:16.943Z,3.1
2017-12-21T00:24:16.729Z,2.6
2017-12-21T00:26:17.507Z,2.8
2017-12-21T00:28:21.278Z,3.1
2017-12-21T00:30:18.052Z,2.9
2017-12-21T00:32:16.863Z,2.9
2017-12-21T00:34:20.628Z,2.7
2017-12-21T00:36:17.441Z,2.7
2017-12-21T00:38:18.188Z,3.1
2017-12-21T00:40:17.967Z,2.8
2017-12-21T00:42:16.789Z,3
2017-12-21T00:44:17.521Z,3.2
2017-12-21T00:46:17.284Z,2.5
2017-12-21T00:48:17.093Z,2.6
2017-12-21T00:50:17.825Z,2.9
2017-12-21T00:52:20.594Z,2.8
2017-12-21T00:54:21.375Z,2.3
2017-12-21T00:56:17.154Z,2.4
2017-12-21T00:58:20.899Z,2.7
2017-12-21T01:00:16.678Z,2.5
2017-12-21T01:02:21.434Z,2.6
2017-12-21T01:04:17.206Z,2.4
2017-12-21T01:06:16.970Z,2.7
2017-12-21T01:08:16.764Z,2.6
2017-12-21T01:10:17.546Z,2.2
2017-12-21T01:12:18.273Z,2.5
2017-12-21T01:14:17.057Z,2.3
2017-12-21T01:16:20.803Z,2.3
2017-12-21T01:18:17.589Z,2.1
2017-12-21T01:20:21.388Z,2.4
2017-12-21T01:22:17.182Z,2
2017-12-21T01:24:16.955Z,1.9
2017-12-21T01:26:17.760Z,1.8
2017-12-21T01:28:20.505Z,2.1
2017-12-21T01:30:17.327Z,2.1
2017-12-21T01:32:21.126Z,1.8
2017-12-21T01:34:20.870Z,1.7
2017-12-21T01:36:17.704Z,2
2017-12-21T01:38:18.478Z,1.9
2017-12-21T01:40:17.234Z,1.8
2017-12-21T01:42:17.065Z,1.5
2017-12-21T01:44:20.802Z,1.6
2017-12-21T01:46:17.598Z,1.5
2017-12-21T01:48:21.352Z,1.5
2017-12-21T01:50:17.181Z,1.3
2017-12-21T01:52:16.961Z,1.4
2017-12-21T01:54:16.772Z,1.5
2017-12-21T01:56:17.608Z,1.6
2017-12-21T01:58:21.389Z,1.8
2017-12-21T02:00:18.169Z,1.5
2017-12-21T02:02:17.003Z,1.4
2017-12-21T02:04:16.787Z,1.4
2017-12-21T02:06:17.573Z,1.2
2017-12-21T02:08:17.412Z,1.3
2017-12-21T02:10:17.181Z,1.2
2017-12-21T02:12:16.983Z,0.9
2017-12-21T02:14:16.818Z,1.3
2017-12-21T02:16:17.585Z,1.3
2017-12-21T02:18:18.390Z,1.3
2017-12-21T02:20:17.188Z,1.1
2017-12-21T02:22:16.986Z,1.2
2017-12-21T02:24:16.786Z,1.2
2017-12-21T02:26:17.606Z,1
2017-12-21T02:28:18.359Z,1.1
2017-12-21T02:30:18.148Z,1.1
2017-12-21T02:32:16.980Z,1
2017-12-21T02:34:16.759Z,0.8
2017-12-21T02:36:17.560Z,1.1
2017-12-21T02:38:17.379Z,0.7
2017-12-21T02:40:17.158Z,0.9
2017-12-21T02:42:16.953Z,0.9
2017-12-21T02:44:16.773Z,0.9
2017-12-21T02:46:17.552Z,0.9
2017-12-21T02:48:17.365Z,0.8
2017-12-21T02:50:21.147Z,0.9
2017-12-21T02:52:16.967Z,1
2017-12-21T02:54:20.740Z,1
2017-12-21T02:56:17.573Z,0.8
2017-12-21T02:58:21.333Z,0.7
2017-12-21T03:00:17.146Z,0.9
2017-12-21T03:02:16.952Z,1
2017-12-21T03:04:16.749Z,1
2017-12-21T03:06:17.574Z,0.8
2017-12-21T03:08:21.314Z,0.9
2017-12-21T03:10:17.109Z,0.8
2017-12-21T03:12:16.930Z,0.8
2017-12-21T03:14:20.671Z,0.7
2017-12-21T03:16:17.520Z,1
2017-12-21T03:18:18.310Z,0.9
2017-12-21T03:20:18.092Z,0.8
2017-12-21T03:22:16.892Z,0.9
2017-12-21T03:24:16.705Z,1
2017-12-21T03:26:17.483Z,1.2
2017-12-21T03:28:17.281Z,1.3
2017-12-21T03:30:17.085Z,1.1
2017-12-21T03:32:16.911Z,1.3
2017-12-21T03:34:16.710Z,1.4
2017-12-21T03:36:17.492Z,1.2
2017-12-21T03:38:17.285Z,1.3
2017-12-21T03:40:17.096Z,1.7
2017-12-21T03:42:16.866Z,2.1
2017-12-21T03:44:16.658Z,1.8
2017-12-21T03:46:17.472Z,1.5
2017-12-21T03:48:21.242Z,2
2017-12-21T03:50:21.025Z,2.1
2017-12-21T03:52:16.841Z,2.2
2017-12-21T03:54:16.631Z,2.1
2017-12-21T03:56:17.432Z,2.2
2017-12-21T03:58:21.225Z,2.2
2017-12-21T04:00:20.982Z,2.5
2017-12-21T04:02:16.787Z,2.5
2017-12-21T04:04:16.609Z,2.4
2017-12-21T04:06:17.360Z,2.7
2017-12-21T04:08:17.159Z,2.3
2017-12-21T04:10:17.941Z,2.5
2017-12-21T04:12:16.723Z,2.7
2017-12-21T04:14:17.532Z,2.7
2017-12-21T04:16:17.322Z,2.9
2017-12-21T04:18:18.097Z,2.3
2017-12-21T04:20:16.915Z,2.5
2017-12-21T04:22:16.689Z,2.9
2017-12-21T04:24:17.492Z,2.4
2017-12-21T04:26:17.292Z,2.8
2017-12-21T04:28:17.092Z,3.1
2017-12-21T04:30:20.899Z,2.8
2017-12-21T04:32:16.688Z,3.4
2017-12-21T04:34:21.443Z,3.9
2017-12-21T04:36:17.272Z,3.7
2017-12-21T04:38:17.070Z,2.9
2017-12-21T04:40:17.871Z,4.2
2017-12-21T04:42:16.686Z,4.4
2017-12-21T04:44:17.464Z,4.6
2017-12-21T04:46:17.271Z,4.3
2017-12-21T04:48:17.081Z,3.6
2017-12-21T04:50:16.891Z,4.5
2017-12-21T04:52:20.635Z,4.2
2017-12-21T04:54:17.456Z,4.9
2017-12-21T04:56:17.238Z,5
2017-12-21T04:58:17.039Z,4.7
2017-12-21T05:00:16.834Z,5.3
2017-12-21T05:02:16.637Z,4.4
2017-12-21T05:04:17.435Z,5.6
2017-12-21T05:06:17.255Z,5.4
2017-12-21T05:08:21.013Z,5
2017-12-21T05:10:17.854Z,4.4
2017-12-21T05:12:20.590Z,5.2
2017-12-21T05:14:17.388Z,4.8
2017-12-21T05:16:18.201Z,4.9
2017-12-21T05:18:17.974Z,4.8
2017-12-21T05:20:20.765Z,4.7
2017-12-21T05:22:16.600Z,4.3
2017-12-21T05:24:21.345Z,4.5
2017-12-21T05:26:18.177Z,4.3
2017-12-21T05:28:16.992Z,4
2017-12-21T05:30:17.784Z,4.2
2017-12-21T05:32:16.575Z,4.1
2017-12-21T05:34:17.424Z,4
2017-12-21T05:36:18.177Z,3.9
2017-12-21T05:38:17.020Z,4.1
2017-12-21T05:40:17.778Z,4
2017-12-21T05:42:16.597Z,3.8
2017-12-21T05:44:17.372Z,3.3
2017-12-21T05:46:17.178Z,4.2
2017-12-21T05:48:16.995Z,3.2
2017-12-21T05:50:20.779Z,3.7
2017-12-21T05:52:16.615Z,4.4
2017-12-21T05:54:21.409Z,3.4
2017-12-21T05:56:18.196Z,3.8
2017-12-21T05:58:17.027Z,3.9
2017-12-21T06:00:20.776Z,4
2017-12-21T06:02:16.594Z,3.7
2017-12-21T06:04:17.409Z,3
2017-12-21T06:06:18.207Z,3.3
2017-12-21T06:08:17.055Z,3.2
2017-12-21T06:10:17.827Z,3.1
2017-12-21T06:12:16.630Z,2.8
2017-12-21T06:14:17.485Z,3.1
2017-12-21T06:16:17.270Z,2.4
2017-12-21T06:18:18.046Z,2.8
2017-12-21T06:20:16.875Z,2.6
2017-12-21T06:22:16.687Z,2.4
2017-12-21T06:24:18.478Z,2.6
2017-12-21T06:26:17.312Z,2.6
2017-12-21T06:28:17.110Z,2.8
2017-12-21T06:30:16.924Z,2.3
2017-12-21T06:32:16.718Z,2.5
2017-12-21T06:34:17.541Z,2.1
2017-12-21T06:36:17.351Z,2
2017-12-21T06:38:17.178Z,2.2
2017-12-21T06:40:18.026Z,2.2
2017-12-21T06:42:16.834Z,2.2
2017-12-21T06:44:16.621Z,1.6
2017-12-21T06:46:17.455Z,2
2017-12-21T06:48:21.247Z,1.9
2017-12-21T06:50:17.070Z,1.7
2017-12-21T06:52:16.898Z,2
2017-12-21T06:54:20.661Z,1.5
2017-12-21T06:56:17.488Z,1.9
2017-12-21T06:58:17.330Z,2
2017-12-21T07:00:21.083Z,2
2017-12-21T07:02:16.926Z,2.2
2017-12-21T07:04:16.737Z,1.5
2017-12-21T07:06:17.521Z,1.6
2017-12-21T07:08:17.338Z,2.1
2017-12-21T07:10:17.154Z,1.9
2017-12-21T07:12:16.941Z,1.6
2017-12-21T07:14:16.781Z,2
2017-12-21T07:16:17.577Z,2.1
2017-12-21T07:18:21.364Z,1.9
2017-12-21T07:20:17.193Z,1.8
2017-12-21T07:22:17.018Z,2.2
2017-12-21T07:24:20.843Z,2.1
2017-12-21T07:26:17.657Z,1.8
2017-12-21T07:28:17.421Z,1.9
2017-12-21T07:30:17.253Z,1.9
2017-12-21T07:32:17.068Z,2.6
2017-12-21T07:34:16.846Z,2.4
2017-12-21T07:36:17.675Z,2.8
2017-12-21T07:38:17.498Z,2.5
2017-12-21T07:40:17.321Z,2.3
2017-12-21T07:42:21.047Z,2.3
2017-12-21T07:44:16.897Z,2
2017-12-21T07:46:17.698Z,2.4
2017-12-21T07:48:17.481Z,2.2
2017-12-21T07:50:17.285Z,2.7
2017-12-21T07:52:17.102Z,2.3
2017-12-21T07:54:20.869Z,2.4
2017-12-21T07:56:17.703Z,2.5
2017-12-21T07:58:17.512Z,2.1
2017-12-21T08:00:18.299Z,2.8
2017-12-21T08:02:21.077Z,2.1
2017-12-21T08:04:16.899Z,2.3
2017-12-21T08:06:17.715Z,1.9
2017-12-21T08:08:17.494Z,2.2
2017-12-21T08:10:17.285Z,2.2
2017-12-21T08:12:17.099Z,1.8
2017-12-21T08:14:20.840Z,1.8
2017-12-21T08:16:17.632Z,2.3
2017-12-21T08:18:18.433Z,1.9
2017-12-21T08:20:17.208Z,1.6
2017-12-21T08:22:17.001Z,1.9
2017-12-21T08:24:16.822Z,2.2
2017-12-21T08:26:17.578Z,2.3
2017-12-21T08:28:17.362Z,2.2
2017-12-21T08:30:17.167Z,2.3
2017-12-21T08:32:16.988Z,2.4
2017-12-21T08:34:17.742Z,2.5
2017-12-21T08:36:17.546Z,1.9
2017-12-21T08:38:17.342Z,2.3
2017-12-21T08:40:17.124Z,2.4
2017-12-21T08:42:16.954Z,2.5
2017-12-21T08:44:20.713Z,2.1
2017-12-21T08:46:17.539Z,2.5
2017-12-21T08:48:21.348Z,2.4
2017-12-21T08:50:17.176Z,2
2017-12-21T08:52:16.943Z,2
2017-12-21T08:54:16.733Z,2.4
2017-12-21T08:56:17.578Z,2.4
2017-12-21T08:58:21.343Z,2.2
2017-12-21T09:00:18.145Z,2.1
2017-12-21T09:02:16.986Z,2
2017-12-21T09:04:20.778Z,1.5
2017-12-21T09:06:17.573Z,1.9
2017-12-21T09:08:17.375Z,1.7
2017-12-21T09:10:17.159Z,1.6
2017-12-21T09:12:16.983Z,1.5
2017-12-21T09:14:16.845Z,1.6
2017-12-21T09:16:17.644Z,1.2
2017-12-21T09:18:18.454Z,1.5
2017-12-21T09:20:18.252Z,1.4
2017-12-21T09:22:17.088Z,1.5
2017-12-21T09:24:16.909Z,1.3
2017-12-21T09:26:17.720Z,1
2017-12-21T09:28:21.500Z,1
2017-12-21T09:30:17.364Z,1.8
2017-12-21T09:32:21.118Z,1.1
2017-12-21T09:34:16.945Z,0.9
2017-12-21T09:36:17.767Z,1.1
2017-12-21T09:38:16.582Z,1.4
2017-12-21T09:40:17.390Z,1.1
2017-12-21T09:42:17.220Z,1.5
2017-12-21T09:44:17.036Z,1.2
2017-12-21T09:46:17.878Z,1.4
2017-12-21T09:48:16.727Z,1.6
2017-12-21T09:50:17.523Z,1.4
2017-12-21T09:52:21.417Z,1.7
2017-12-21T09:54:18.188Z,1.6
2017-12-21T09:56:18.007Z,1.6
2017-12-21T09:58:16.853Z,1.3
2017-12-21T10:00:16.644Z,1.4
2017-12-21T10:02:17.464Z,1.5
2017-12-21T10:04:21.310Z,1.6
2017-12-21T10:06:18.102Z,1.6
2017-12-21T10:08:16.959Z,1.4
2017-12-21T10:10:17.746Z,1.4
2017-12-21T10:12:17.588Z,1.8
2017-12-21T10:14:17.433Z,1.7
2017-12-21T10:16:17.251Z,2
2017-12-21T10:18:18.078Z,1.8
2017-12-21T10:20:16.908Z,1.7
2017-12-21T10:22:16.729Z,1.5
2017-12-21T10:24:16.583Z,2.2
2017-12-21T10:26:17.372Z,1.8
2017-12-21T10:28:17.216Z,1.7
2017-12-21T10:30:17.076Z,1.6
2017-12-21T10:32:20.860Z,1.5
2017-12-21T10:34:16.698Z,1.8
2017-12-21T10:36:17.535Z,2.3
2017-12-21T10:38:17.339Z,1.9
2017-12-21T10:40:17.192Z,1.6
2017-12-21T10:42:17.000Z,2.3
2017-12-21T10:44:16.807Z,1.7
2017-12-21T10:46:17.670Z,1.5
2017-12-21T10:48:21.447Z,1.4
2017-12-21T10:50:17.292Z,1.9
2017-12-21T10:52:17.156Z,1.6
2017-12-21T10:54:16.954Z,2.3
2017-12-21T10:56:17.820Z,1.8
2017-12-21T10:58:20.679Z,2.1
2017-12-21T11:00:18.459Z,1.8
2017-12-21T11:02:17.290Z,1.8
2017-12-21T11:04:17.151Z,2.1
2017-12-21T11:06:16.952Z,2.6
2017-12-21T11:08:16.762Z,2.1
2017-12-21T11:10:17.584Z,2.7
2017-12-21T11:12:17.440Z,2.3
2017-12-21T11:14:17.272Z,2.4
2017-12-21T11:16:17.086Z,2.6
2017-12-21T11:18:17.906Z,2.6
2017-12-21T11:20:16.728Z,2.5
2017-12-21T11:22:17.540Z,2.5
2017-12-21T11:24:17.368Z,2.6
2017-12-21T11:26:17.221Z,2.6
2017-12-21T11:28:17.079Z,2.3
2017-12-21T11:30:20.866Z,2.7
2017-12-21T11:32:16.705Z,2.8
2017-12-21T11:34:17.536Z,2.9
2017-12-21T11:36:17.384Z,2.5
2017-12-21T11:38:17.187Z,3.2
2017-12-21T11:40:16.981Z,2.8
2017-12-21T11:42:16.866Z,2.1
2017-12-21T11:44:20.662Z,2.8
2017-12-21T11:46:17.469Z,2.7
2017-12-21T11:48:17.301Z,2.5
2017-12-21T11:50:18.170Z,2.2
2017-12-21T11:52:17.947Z,2.8
2017-12-21T11:54:20.766Z,2.4
2017-12-21T11:56:17.579Z,2.9
2017-12-21T11:58:17.425Z,2.6
2017-12-21T12:00:17.230Z,2.8
2017-12-21T12:02:17.045Z,2.5
2017-12-21T12:04:16.905Z,2.8
2017-12-21T12:06:17.689Z,2.6
2017-12-21T12:08:17.514Z,2.9
2017-12-21T12:10:17.347Z,2.9
2017-12-21T12:12:17.141Z,2.6
2017-12-21T12:14:16.972Z,2.6
2017-12-21T12:16:16.815Z,3.1
2017-12-21T12:18:17.594Z,2.8
2017-12-21T12:20:17.467Z,2.7
2017-12-21T12:22:18.260Z,2.8
2017-12-21T12:24:17.066Z,2.8
2017-12-21T12:26:16.905Z,3.2
2017-12-21T12:28:16.716Z,4.1
2017-12-21T12:30:17.550Z,3.5
2017-12-21T12:32:17.382Z,2.8
2017-12-21T12:34:18.185Z,3.4
2017-12-21T12:36:17.055Z,3.3
2017-12-21T12:38:16.857Z,3.8
2017-12-21T12:40:17.690Z,3.4
2017-12-21T12:42:17.520Z,3.8
2017-12-21T12:44:17.345Z,3.4
2017-12-21T12:46:18.158Z,3.5
2017-12-21T12:48:17.049Z,3.6
2017-12-21T12:50:16.844Z,3.9
2017-12-21T12:52:16.677Z,3.5
2017-12-21T12:54:17.511Z,3.5
2017-12-21T12:56:17.340Z,3.5
2017-12-21T12:58:17.162Z,3.9
2017-12-21T13:00:16.980Z,4.2
2017-12-21T13:02:16.800Z,4
2017-12-21T13:04:16.670Z,4.5
2017-12-21T13:06:17.469Z,4.4
2017-12-21T13:08:17.287Z,3.9
2017-12-21T13:10:17.099Z,3.8
2017-12-21T13:12:16.909Z,3.8
2017-12-21T13:14:16.714Z,3.6
2017-12-21T13:16:17.553Z,3.6
2017-12-21T13:18:18.344Z,4
2017-12-21T13:20:17.159Z,3.9
2017-12-21T13:22:16.972Z,4.4
2017-12-21T13:24:20.736Z,4.2
2017-12-21T13:26:17.568Z,4.1
2017-12-21T13:28:17.401Z,4.3
2017-12-21T13:30:18.174Z,4
2017-12-21T13:32:16.953Z,4.7
2017-12-21T13:34:16.796Z,4.5
2017-12-21T13:36:17.573Z,4.8
2017-12-21T13:38:17.363Z,4.8
2017-12-21T13:40:17.175Z,4.7
2017-12-21T13:42:16.973Z,4.3
2017-12-21T13:44:16.804Z,4.6
2017-12-21T13:46:17.614Z,4.4
2017-12-21T13:48:17.479Z,4.5
2017-12-21T13:50:18.242Z,4.1
2017-12-21T13:52:17.092Z,4.6
2017-12-21T13:54:20.841Z,4.6
2017-12-21T13:56:17.731Z,4.5
2017-12-21T13:58:21.477Z,5.1
2017-12-21T14:00:17.305Z,4.5
2017-12-21T14:02:17.144Z,5.2
2017-12-21T14:04:16.935Z,4.7
2017-12-21T14:06:17.784Z,5.1
2017-12-21T14:08:16.641Z,4.5
2017-12-21T14:10:17.445Z,4.8
2017-12-21T14:12:17.283Z,4.1
2017-12-21T14:14:17.102Z,4.4
2017-12-21T14:16:16.905Z,4.4
2017-12-21T14:18:17.731Z,4.3
2017-12-21T14:20:17.526Z,4.7
2017-12-21T14:22:17.345Z,4.5
2017-12-21T14:24:17.192Z,4.6
2017-12-21T14:26:16.958Z,4.7
2017-12-21T14:28:16.764Z,4.7
2017-12-21T14:30:16.578Z,4.4
2017-12-21T14:32:17.370Z,4.3
2017-12-21T14:34:17.249Z,4.6
2017-12-21T14:36:17.038Z,4.6
2017-12-21T14:38:20.795Z,4.7
2017-12-21T14:40:17.665Z,4.6
2017-12-21T14:42:21.445Z,4.7
2017-12-21T14:44:17.239Z,4.5
2017-12-21T14:46:18.036Z,4.4
2017-12-21T14:48:16.881Z,4.5
2017-12-21T14:50:17.658Z,4.3
2017-12-21T14:52:17.501Z,4.5
2017-12-21T14:54:17.286Z,4.8
2017-12-21T14:56:18.122Z,4.6
2017-12-21T14:58:16.950Z,4
2017-12-21T15:00:20.731Z,4.6
2017-12-21T15:02:16.541Z,4.6
2017-12-21T15:04:17.386Z,4.3
2017-12-21T15:06:17.176Z,4.9
2017-12-21T15:08:16.995Z,4.5
2017-12-21T15:10:17.806Z,5.2
2017-12-21T15:12:20.596Z,4.5
2017-12-21T15:14:17.435Z,5.6
2017-12-21T15:16:17.194Z,4.7
2017-12-21T15:18:20.994Z,4.4
2017-12-21T15:20:16.824Z,4.2
2017-12-21T15:22:16.622Z,5.3
2017-12-21T15:24:17.446Z,4.2
2017-12-21T15:26:17.257Z,3.8
2017-12-21T15:28:21.058Z,4.8
2017-12-21T15:30:20.828Z,5.4
2017-12-21T15:32:16.652Z,4.8
2017-12-21T15:34:21.417Z,5.9
2017-12-21T15:36:18.229Z,4.9
2017-12-21T15:38:17.079Z,4.7
2017-12-21T15:40:17.832Z,4.7
2017-12-21T15:42:16.647Z,4.3
2017-12-21T15:44:17.473Z,4.4
2017-12-21T15:46:17.251Z,5
2017-12-21T15:48:17.078Z,5.4
2017-12-21T15:50:16.880Z,5.3
2017-12-21T15:52:20.675Z,5.2
2017-12-21T15:54:17.492Z,5.3
2017-12-21T15:56:17.293Z,4.6
2017-12-21T15:58:17.065Z,4
2017-12-21T16:00:16.886Z,5.8
2017-12-21T16:02:16.676Z,4.9
2017-12-21T16:04:17.485Z,4.1
2017-12-21T16:06:17.305Z,4.5
2017-12-21T16:08:21.062Z,5.1
2017-12-21T16:10:17.864Z,4.6
2017-12-21T16:12:16.698Z,4.8
2017-12-21T16:14:21.447Z,4.5
2017-12-21T16:16:17.293Z,4
2017-12-21T16:18:18.063Z,4.3
2017-12-21T16:20:16.842Z,3.9
2017-12-21T16:22:16.677Z,4.5
2017-12-21T16:24:21.414Z,3.6
2017-12-21T16:26:17.235Z,4.5
2017-12-21T16:28:17.047Z,3.5
2017-12-21T16:30:20.827Z,4.2
2017-12-21T16:32:16.660Z,3.5
2017-12-21T16:34:21.434Z,4.2
2017-12-21T16:36:18.245Z,4
2017-12-21T16:38:17.064Z,3.7
2017-12-21T16:40:17.826Z,3.4
2017-12-21T16:42:16.634Z,4.1
2017-12-21T16:44:17.452Z,4
2017-12-21T16:46:18.227Z,4.5
2017-12-21T16:48:17.052Z,3.9
2017-12-21T16:50:20.826Z,4.3
2017-12-21T16:52:16.623Z,3.7
2017-12-21T16:54:17.413Z,4
2017-12-21T16:56:17.243Z,3.9
2017-12-21T16:58:21.002Z,3.6
2017-12-21T17:00:17.843Z,3.6
2017-12-21T17:02:20.600Z,3.9
2017-12-21T17:04:17.441Z,3.9
2017-12-21T17:06:17.224Z,4.1
2017-12-21T17:08:17.003Z,4
2017-12-21T17:10:17.814Z,4.8
2017-12-21T17:12:16.638Z,3.6
2017-12-21T17:14:21.402Z,3.5
2017-12-21T17:16:17.225Z,3.8
2017-12-21T17:18:18.043Z,3.8
2017-12-21T17:20:16.824Z,3.7
2017-12-21T17:22:16.638Z,3.9
2017-12-21T17:24:17.467Z,4.2
2017-12-21T17:26:17.251Z,4.1
2017-12-21T17:28:17.042Z,3.7
2017-12-21T17:30:16.864Z,3.8
2017-12-21T17:32:20.606Z,4.2
2017-12-21T17:34:17.406Z,3.9
2017-12-21T17:36:17.208Z,3.9
2017-12-21T17:38:20.979Z,3.8
2017-12-21T17:40:17.817Z,3.9
2017-12-21T17:42:20.581Z,3.1
2017-12-21T17:44:17.385Z,4.3
2017-12-21T17:46:17.205Z,4.4
2017-12-21T17:48:20.966Z,4
2017-12-21T17:50:16.790Z,4.5
2017-12-21T17:52:16.585Z,4.7
2017-12-21T17:54:17.350Z,3.5
2017-12-21T17:56:17.174Z,3.9
2017-12-21T17:58:16.968Z,3.5
2017-12-21T18:00:16.776Z,3.2
2017-12-21T18:02:20.548Z,3.8
2017-12-21T18:04:17.379Z,4.4
2017-12-21T18:06:18.144Z,3.9
2017-12-21T18:08:20.897Z,4.6
2017-12-21T18:10:17.729Z,4.1
2017-12-21T18:12:21.469Z,3.9
2017-12-21T18:14:17.273Z,4
2017-12-21T18:16:18.075Z,4.2
2017-12-21T18:18:17.844Z,4
2017-12-21T18:20:16.682Z,3.6
2017-12-21T18:22:18.445Z,4.5
2017-12-21T18:24:21.202Z,3.9
2017-12-21T18:26:17.018Z,3.4
2017-12-21T18:28:20.782Z,4.1
2017-12-21T18:30:16.572Z,3.5
2017-12-21T18:32:17.375Z,3.7
2017-12-21T18:34:18.134Z,4
2017-12-21T18:36:17.917Z,4
2017-12-21T18:38:20.732Z,4
2017-12-21T18:40:17.485Z,3.2
2017-12-21T18:42:17.269Z,4
2017-12-21T18:44:17.073Z,4.3
2017-12-21T18:46:16.843Z,5.2
2017-12-21T18:48:16.635Z,39.1
2017-12-21T18:50:17.430Z,4.3
2017-12-21T18:52:21.184Z,4.3
2017-12-21T18:54:17.009Z,5
2017-12-21T18:56:16.779Z,4.5
2017-12-21T18:58:16.570Z,4.4
2017-12-21T19:00:18.355Z,7.1
2017-12-21T19:02:21.120Z,4.5
2017-12-21T19:04:16.917Z,3.9
2017-12-21T19:06:17.730Z,4.3
2017-12-21T19:08:21.488Z,4.9
2017-12-21T19:10:17.293Z,4.4
2017-12-21T19:12:17.106Z,4.9
2017-12-21T19:14:20.856Z,4.3
2017-12-21T19:16:17.643Z,4.4
2017-12-21T19:18:18.430Z,4.3
2017-12-21T19:20:21.197Z,4.1
2017-12-21T19:22:16.996Z,3.9
2017-12-21T19:24:16.796Z,4.7
2017-12-21T19:26:17.592Z,4.6
2017-12-21T19:28:21.360Z,4.5
2017-12-21T19:30:18.120Z,4.8
2017-12-21T19:32:20.878Z,4.4
2017-12-21T19:34:16.677Z,4.3
2017-12-21T19:36:17.416Z,5.1
2017-12-21T19:40:17.981Z,5
2017-12-21T19:42:17.770Z,5.1
2017-12-21T19:44:20.490Z,5.1
2017-12-21T19:46:17.300Z,5.2
2017-12-21T19:48:17.085Z,5.1
2017-12-21T19:50:20.877Z,6.6
2017-12-21T19:52:20.620Z,6.7
2017-12-21T19:54:21.388Z,7
2017-12-21T19:56:17.194Z,6.7
2017-12-21T19:58:17.971Z,6.9
2017-12-21T20:00:17.756Z,7.3
2017-12-21T20:02:20.513Z,7.6
2017-12-21T20:04:17.293Z,8.3
2017-12-21T20:06:18.053Z,7.3
2017-12-21T20:08:16.856Z,8.1
2017-12-21T20:10:17.592Z,9.4
2017-12-21T20:12:17.413Z,9
2017-12-21T20:14:18.200Z,9.3
2017-12-21T20:16:17.949Z,11.9
2017-12-21T20:18:17.766Z,11.1
2017-12-21T20:20:17.515Z,10.9
2017-12-21T20:22:21.283Z,9.8
2017-12-21T20:24:18.108Z,11.1
2017-12-21T20:26:17.879Z,11.2
2017-12-21T20:28:20.624Z,11.1
2017-12-21T20:30:21.399Z,10.8
2017-12-21T20:32:21.152Z,12.5
2017-12-21T20:34:20.916Z,12.4
2017-12-21T20:36:17.717Z,12.6
2017-12-21T20:38:18.451Z,13.3
2017-12-21T20:40:17.213Z,14.2
2017-12-21T20:42:17.000Z,14.6
2017-12-21T20:44:20.718Z,13.6
2017-12-21T20:46:17.515Z,14.9
2017-12-21T20:48:18.271Z,14.7
2017-12-21T20:50:18.002Z,16.4
2017-12-21T20:52:20.763Z,15.4
2017-12-21T20:54:20.490Z,15.5
2017-12-21T20:56:17.267Z,15.3
2017-12-21T20:58:21.010Z,15.3
2017-12-21T21:00:20.755Z,16.1
2017-12-21T21:02:16.560Z,15.7
2017-12-21T21:04:18.298Z,16.4
2017-12-21T21:06:18.061Z,16.3
2017-12-21T21:08:20.876Z,16.9
2017-12-21T21:10:17.612Z,16.4
2017-12-21T21:12:18.376Z,15.5
2017-12-21T21:14:17.167Z,14
2017-12-21T21:16:16.909Z,15.8
2017-12-21T21:18:17.744Z,15.6
2017-12-21T21:20:17.516Z,15.5
2017-12-21T21:22:21.261Z,15.8
2017-12-21T21:24:17.064Z,14.8
2017-12-21T21:26:17.844Z,13.6
2017-12-21T21:28:16.620Z,13.8
2017-12-21T21:30:21.389Z,12.5
2017-12-21T21:32:17.194Z,12.7
2017-12-21T21:34:21.003Z,11.8
2017-12-21T21:36:17.781Z,11.8
2017-12-21T21:38:16.570Z,11.8
2017-12-21T21:40:17.346Z,10.6
2017-12-21T21:42:17.153Z,10.6
2017-12-21T21:44:17.915Z,9.7
2017-12-21T21:46:17.716Z,10.2
2017-12-21T21:48:21.486Z,8.5
2017-12-21T21:50:17.280Z,9.8
2017-12-21T21:52:18.084Z,8.1
2017-12-21T21:54:20.831Z,8.2
2017-12-21T21:56:17.630Z,8
2017-12-21T21:58:17.461Z,7.8
2017-12-21T22:00:18.224Z,7.3
2017-12-21T22:02:17.026Z,7.1
2017-12-21T22:04:20.805Z,8
2017-12-21T22:06:17.573Z,6.9
2017-12-21T22:08:17.373Z,6.2
2017-12-21T22:10:17.131Z,6.5
2017-12-21T22:12:16.966Z,5.9
2017-12-21T22:14:17.672Z,5.8
2017-12-21T22:16:17.493Z,6.5
2017-12-21T22:18:18.225Z,7
2017-12-21T22:20:18.037Z,6.1
2017-12-21T22:22:20.771Z,5.4
2017-12-21T22:24:16.574Z,5.1
2017-12-21T22:26:17.363Z,5.8
2017-12-21T22:28:21.108Z,5.9
2017-12-21T22:30:20.861Z,5.9
2017-12-21T22:32:16.684Z,5.2
2017-12-21T22:34:17.432Z,5.7
2017-12-21T22:36:17.253Z,5.3
2017-12-21T22:38:21.022Z,5.2
2017-12-21T22:40:17.796Z,4.6
2017-12-21T22:42:16.572Z,5.6
2017-12-21T22:44:17.371Z,5.5
2017-12-21T22:46:18.146Z,5.3
2017-12-21T22:48:16.934Z,4.7
2017-12-21T22:50:17.724Z,4.5
2017-12-21T22:52:17.535Z,5.1
2017-12-21T22:54:21.264Z,5.5
2017-12-21T22:56:17.056Z,5.1
2017-12-21T22:58:20.845Z,4.7
2017-12-21T23:00:17.639Z,4.5
2017-12-21T23:02:17.432Z,4.6
2017-12-21T23:04:21.226Z,4.2
2017-12-21T23:06:17.047Z,3.8
2017-12-21T23:08:20.813Z,3.8
2017-12-21T23:10:17.582Z,3.6
2017-12-21T23:12:17.373Z,3.8
2017-12-21T23:14:21.124Z,3.7
2017-12-21T23:16:16.893Z,3.9
2017-12-21T23:18:17.717Z,3.5
2017-12-21T23:20:18.446Z,2.7
2017-12-21T23:22:21.194Z,3.5
2017-12-21T23:24:17.042Z,3.7
2017-12-21T23:26:16.787Z,3.6
2017-12-21T23:28:16.568Z,4
2017-12-21T23:30:21.323Z,3.6
2017-12-21T23:32:21.098Z,3.4
2017-12-21T23:34:20.884Z,3.3
2017-12-21T23:36:16.655Z,3.4
2017-12-21T23:38:21.413Z,3
2017-12-21T23:40:17.194Z,3.6
2017-12-21T23:42:20.957Z,3.6
2017-12-21T23:44:20.740Z,2.8
2017-12-21T23:46:17.537Z,3.4
2017-12-21T23:48:18.273Z,3
2017-12-21T23:50:21.016Z,3.2
2017-12-21T23:52:16.840Z,3.1
2017-12-21T23:54:20.581Z,2.9
2017-12-21T23:56:17.404Z,2.9
2017-12-21T23:58:21.133Z,3.1
